createdAt,value
2022-12-17T00:00:07.301Z,50.80
2022-12-17T00:03:19.545Z,50.40
2022-12-17T00:06:06.608Z,48.60
2022-12-17T00:08:53.537Z,45.60
2022-12-17T00:11:40.380Z,50.10
2022-12-17T00:14:27.097Z,53.70
2022-12-17T00:17:13.846Z,50.20
2022-12-17T00:20:00.603Z,49.20
2022-12-17T00:22:47.577Z,52.30
2022-12-17T00:25:34.932Z,50.30
2022-12-17T00:28:22.154Z,51.00
2022-12-17T00:31:12.258Z,54.30
2022-12-17T00:33:59.152Z,50.20
2022-12-17T00:36:47.157Z,51.10
2022-12-17T00:39:34.046Z,50.80
2022-12-17T00:42:21.022Z,54.10
2022-12-17T00:45:07.959Z,55.70
2022-12-17T00:47:55.065Z,49.30
2022-12-17T00:50:43.692Z,53.60
2022-12-17T00:53:30.480Z,54.50
2022-12-17T00:56:17.382Z,49.40
2022-12-17T00:59:04.112Z,52.40
2022-12-17T01:01:51.063Z,51.40
2022-12-17T01:04:39.372Z,49.90
2022-12-17T01:07:26.483Z,46.70
2022-12-17T01:10:13.315Z,55.00
2022-12-17T01:13:00.280Z,48.70
2022-12-17T01:15:47.081Z,53.10
2022-12-17T01:18:38.420Z,49.60
2022-12-17T01:21:25.141Z,47.70
2022-12-17T01:24:13.509Z,46.80
2022-12-17T01:27:00.688Z,47.60
2022-12-17T01:29:47.336Z,49.20
2022-12-17T01:32:35.359Z,47.70
2022-12-17T01:35:22.638Z,50.00
2022-12-17T01:38:10.477Z,52.70
2022-12-17T01:40:57.092Z,52.00
2022-12-17T01:43:56.411Z,50.10
2022-12-17T01:46:47.553Z,47.40
2022-12-17T01:49:36.835Z,47.70
2022-12-17T01:52:25.442Z,48.80
2022-12-17T01:55:12.781Z,47.60
2022-12-17T01:57:59.499Z,49.70
2022-12-17T02:00:46.507Z,47.80
2022-12-17T02:03:35.983Z,48.90
2022-12-17T02:06:41.191Z,46.70
2022-12-17T02:10:13.422Z,50.40
2022-12-17T02:13:10.131Z,47.70
2022-12-17T02:16:05.634Z,46.90
2022-12-17T02:19:03.922Z,50.20
2022-12-17T02:21:54.607Z,49.70
2022-12-17T02:24:54.832Z,47.60
2022-12-17T02:27:43.441Z,47.50
2022-12-17T02:30:31.054Z,48.20
2022-12-17T02:33:19.872Z,43.00
2022-12-17T02:36:18.920Z,45.00
2022-12-17T02:39:05.857Z,47.20
2022-12-17T02:42:08.540Z,48.20
2022-12-17T02:44:57.204Z,44.60
2022-12-17T02:47:44.999Z,46.20
2022-12-17T02:50:32.658Z,43.30
2022-12-17T02:53:21.998Z,47.00
2022-12-17T02:56:08.773Z,47.40
2022-12-17T02:58:57.258Z,45.20
2022-12-17T03:02:04.182Z,51.40
2022-12-17T03:04:51.308Z,51.60
2022-12-17T03:07:38.303Z,48.90
2022-12-17T03:10:25.797Z,48.80
2022-12-17T03:13:12.744Z,49.00
2022-12-17T03:15:59.614Z,46.30
2022-12-17T03:18:46.340Z,44.80
2022-12-17T03:21:33.365Z,48.30
2022-12-17T03:24:20.188Z,49.60
2022-12-17T03:27:06.879Z,48.10
2022-12-17T03:29:53.503Z,49.40
2022-12-17T03:32:40.596Z,44.80
2022-12-17T03:35:27.600Z,43.50
2022-12-17T03:38:14.315Z,47.90
2022-12-17T03:41:01.003Z,46.60
2022-12-17T03:43:48.101Z,48.60
2022-12-17T03:46:35.270Z,51.80
2022-12-17T03:49:22.004Z,44.00
2022-12-17T03:52:09.172Z,46.30
2022-12-17T03:54:56.184Z,44.90
2022-12-17T03:57:43.116Z,46.30
2022-12-17T04:00:30.260Z,48.10
2022-12-17T04:03:17.425Z,47.10
2022-12-17T04:06:04.462Z,48.30
2022-12-17T04:08:51.253Z,43.20
2022-12-17T04:11:38.092Z,41.90
2022-12-17T04:14:25.015Z,46.30
2022-12-17T04:17:11.744Z,41.30
2022-12-17T04:19:58.646Z,43.50
2022-12-17T04:22:45.743Z,43.30
2022-12-17T04:25:32.581Z,45.90
2022-12-17T04:28:19.620Z,45.10
2022-12-17T04:31:06.761Z,44.30
2022-12-17T04:33:53.588Z,47.10
2022-12-17T04:36:40.103Z,41.00
2022-12-17T04:39:28.448Z,45.70
2022-12-17T04:42:15.066Z,44.10
2022-12-17T04:45:01.956Z,45.70
2022-12-17T04:47:48.725Z,48.00
2022-12-17T04:50:36.080Z,41.40
2022-12-17T04:53:25.280Z,43.70
2022-12-17T04:56:15.630Z,41.90
2022-12-17T04:59:02.641Z,43.60
2022-12-17T05:01:49.910Z,43.70
2022-12-17T05:04:36.633Z,41.60
2022-12-17T05:07:23.701Z,42.30
2022-12-17T05:10:10.406Z,41.10
2022-12-17T05:12:57.327Z,44.70
2022-12-17T05:15:48.330Z,42.00
2022-12-17T05:18:38.390Z,42.40
2022-12-17T05:21:28.100Z,39.80
2022-12-17T05:24:19.341Z,44.20
2022-12-17T05:27:06.629Z,41.10
2022-12-17T05:29:53.690Z,41.10
2022-12-17T05:32:40.378Z,43.90
2022-12-17T05:35:28.745Z,41.50
2022-12-17T05:38:23.101Z,46.50
2022-12-17T05:41:10.905Z,40.40
2022-12-17T05:43:57.793Z,43.10
2022-12-17T05:46:45.060Z,42.10
2022-12-17T05:49:32.474Z,40.00
2022-12-17T05:52:19.479Z,43.30
2022-12-17T05:55:06.456Z,39.70
2022-12-17T05:57:56.453Z,39.70
2022-12-17T06:00:44.066Z,42.60
2022-12-17T06:03:31.223Z,41.10
2022-12-17T06:06:18.042Z,41.20
2022-12-17T06:09:05.136Z,42.50
2022-12-17T06:11:51.766Z,43.20
2022-12-17T06:14:38.787Z,42.60
2022-12-17T06:17:25.648Z,40.00
2022-12-17T06:20:12.617Z,41.10
2022-12-17T06:22:59.209Z,43.40
2022-12-17T06:25:45.916Z,40.90
2022-12-17T06:28:32.926Z,43.40
2022-12-17T06:31:19.705Z,41.40
2022-12-17T06:34:06.449Z,40.00
2022-12-17T06:36:53.543Z,41.10
2022-12-17T06:39:40.176Z,46.30
2022-12-17T06:42:27.198Z,40.80
2022-12-17T06:45:13.907Z,42.50
2022-12-17T06:48:00.782Z,45.10
2022-12-17T06:50:47.476Z,42.60
2022-12-17T06:53:34.478Z,42.00
2022-12-17T06:56:21.689Z,42.60
2022-12-17T06:59:13.103Z,41.50
2022-12-17T07:01:59.900Z,41.90
2022-12-17T07:04:46.846Z,43.90
2022-12-17T07:07:33.702Z,41.00
2022-12-17T07:10:20.370Z,43.80
2022-12-17T07:13:07.440Z,48.80
2022-12-17T07:15:56.669Z,41.40
2022-12-17T07:18:43.282Z,44.70
2022-12-17T07:21:30.227Z,45.00
2022-12-17T07:24:17.355Z,43.60
2022-12-17T07:27:04.103Z,44.70
2022-12-17T07:29:50.944Z,44.10
2022-12-17T07:32:37.757Z,44.10
2022-12-17T07:35:25.384Z,46.00
2022-12-17T07:38:23.505Z,46.70
2022-12-17T07:41:10.358Z,47.70
2022-12-17T07:43:57.054Z,44.60
2022-12-17T07:46:43.787Z,45.20
2022-12-17T07:49:30.859Z,43.00
2022-12-17T07:52:19.580Z,41.50
2022-12-17T07:55:06.590Z,42.60
2022-12-17T07:57:53.493Z,41.30
2022-12-17T08:00:44.658Z,40.30
2022-12-17T08:03:35.328Z,41.00
2022-12-17T08:06:23.156Z,44.20
2022-12-17T08:09:10.041Z,41.30
2022-12-17T08:11:57.239Z,41.70
2022-12-17T08:14:43.944Z,41.80
2022-12-17T08:17:30.879Z,41.50
2022-12-17T08:20:18.042Z,44.60
2022-12-17T08:23:05.027Z,39.90
2022-12-17T08:25:52.024Z,47.50
2022-12-17T08:28:50.541Z,47.10
2022-12-17T08:31:38.455Z,43.90
2022-12-17T08:34:25.716Z,43.90
2022-12-17T08:37:12.848Z,46.40
2022-12-17T08:39:59.570Z,40.70
2022-12-17T08:42:46.373Z,42.90
2022-12-17T08:45:33.764Z,39.40
2022-12-17T08:48:25.872Z,44.20
2022-12-17T08:51:12.948Z,42.80
2022-12-17T08:53:59.792Z,42.10
2022-12-17T08:56:47.059Z,41.80
2022-12-17T08:59:34.228Z,40.90
2022-12-17T09:02:24.611Z,38.20
2022-12-17T09:05:20.566Z,40.70
2022-12-17T09:08:08.044Z,40.10
2022-12-17T09:10:55.168Z,37.90
2022-12-17T09:13:42.284Z,41.40
2022-12-17T09:16:29.402Z,40.50
2022-12-17T09:19:16.588Z,38.00
2022-12-17T09:22:04.294Z,39.70
2022-12-17T09:24:51.800Z,40.40
2022-12-17T09:27:38.922Z,38.60
2022-12-17T09:30:26.730Z,41.00
2022-12-17T09:33:13.583Z,39.30
2022-12-17T09:36:01.383Z,41.60
2022-12-17T09:38:48.291Z,41.50
2022-12-17T09:41:56.328Z,38.50
2022-12-17T09:45:06.900Z,41.80
2022-12-17T09:48:19.134Z,41.90
2022-12-17T09:51:10.647Z,38.60
2022-12-17T09:54:10.095Z,40.50
2022-12-17T09:56:59.536Z,36.60
2022-12-17T09:59:52.334Z,42.60
2022-12-17T10:02:44.054Z,39.70
2022-12-17T10:05:43.936Z,42.70
2022-12-17T10:08:36.118Z,44.70
2022-12-17T10:11:47.311Z,46.70
2022-12-17T10:14:44.465Z,44.70
2022-12-17T10:17:39.940Z,42.50
2022-12-17T10:20:42.367Z,44.90
2022-12-17T10:23:29.385Z,43.40
2022-12-17T10:26:16.349Z,43.80
2022-12-17T10:29:03.067Z,43.10
2022-12-17T10:31:49.671Z,45.20
2022-12-17T10:34:39.286Z,49.10
2022-12-17T10:37:38.000Z,46.70
2022-12-17T10:40:39.615Z,46.60
2022-12-17T10:43:46.535Z,47.30
2022-12-17T10:46:53.811Z,39.60
2022-12-17T10:49:43.844Z,47.50
2022-12-17T10:52:39.808Z,44.90
2022-12-17T10:58:33.131Z,46.70
2022-12-17T11:01:22.316Z,46.40
2022-12-17T11:04:18.751Z,51.30
2022-12-17T11:07:09.908Z,48.20
2022-12-17T11:10:30.041Z,47.30
2022-12-17T11:13:22.204Z,47.00
2022-12-17T11:16:15.624Z,48.40
2022-12-17T11:19:40.419Z,50.90
2022-12-17T11:22:56.795Z,48.40
2022-12-17T11:26:22.500Z,39.20
2022-12-17T11:29:09.922Z,50.70
2022-12-17T11:32:26.041Z,47.40
2022-12-17T11:35:28.347Z,49.30
2022-12-17T11:38:51.538Z,47.10
2022-12-17T11:41:53.423Z,46.90
2022-12-17T11:44:40.231Z,44.30
2022-12-17T11:47:39.801Z,48.80
2022-12-17T11:50:52.983Z,47.30
2022-12-17T11:54:08.409Z,44.30
2022-12-17T11:57:04.225Z,50.20
2022-12-17T12:03:10.525Z,47.30
2022-12-17T12:06:18.083Z,48.90
2022-12-17T12:09:19.020Z,49.90
2022-12-17T12:12:43.744Z,47.60
2022-12-17T12:15:54.811Z,47.90
2022-12-17T12:19:30.780Z,47.30
2022-12-17T12:22:44.787Z,45.80
2022-12-17T12:25:46.821Z,47.60
2022-12-17T12:28:51.301Z,51.60
2022-12-17T12:32:06.300Z,49.20
2022-12-17T12:34:57.284Z,50.10
2022-12-17T12:37:45.358Z,50.80
2022-12-17T12:40:55.575Z,50.10
2022-12-17T12:43:49.371Z,47.20
2022-12-17T12:47:01.127Z,49.90
2022-12-17T12:50:04.414Z,49.80
2022-12-17T12:52:50.983Z,45.50
2022-12-17T12:55:37.679Z,50.80
2022-12-17T12:58:45.727Z,47.30
2022-12-17T13:01:33.260Z,49.30
2022-12-17T13:04:34.772Z,49.60
2022-12-17T13:07:05.677Z,53.30
2022-12-17T13:09:48.482Z,48.00
2022-12-17T13:12:28.383Z,49.10
2022-12-17T13:15:01.052Z,47.80
2022-12-17T13:17:39.849Z,53.50
2022-12-17T13:20:28.393Z,51.40
2022-12-17T13:23:11.742Z,50.90
2022-12-17T13:25:40.583Z,53.90
2022-12-17T13:28:35.639Z,55.40
2022-12-17T13:31:14.272Z,53.80
2022-12-17T13:34:06.767Z,54.10
2022-12-17T13:37:07.308Z,43.30
2022-12-17T13:39:59.708Z,50.60
2022-12-17T13:42:32.821Z,49.60
2022-12-17T13:45:02.132Z,49.10
2022-12-17T13:47:33.381Z,53.30
2022-12-17T13:50:32.659Z,52.20
2022-12-17T13:52:53.600Z,59.10
2022-12-17T13:55:29.290Z,55.40
2022-12-17T13:57:58.104Z,60.50
2022-12-17T14:00:29.539Z,61.50
2022-12-17T14:02:58.067Z,61.80
2022-12-17T14:05:42.538Z,59.60
2022-12-17T14:08:17.285Z,64.70
2022-12-17T14:10:52.241Z,68.00
2022-12-17T14:13:20.496Z,66.00
2022-12-17T14:15:52.943Z,70.80
2022-12-17T14:18:22.184Z,71.00
2022-12-17T14:20:55.653Z,68.50
2022-12-17T14:23:30.855Z,68.90
2022-12-17T14:26:00.082Z,72.00
2022-12-17T14:28:36.374Z,70.10
2022-12-17T14:34:11.592Z,72.20
2022-12-17T14:36:43.019Z,69.30
2022-12-17T14:39:22.694Z,76.70
2022-12-17T14:42:10.398Z,72.50
2022-12-17T14:44:53.331Z,72.50
2022-12-17T14:47:30.732Z,68.10
2022-12-17T14:50:17.195Z,69.10
2022-12-17T14:52:48.957Z,67.40
2022-12-17T14:55:24.401Z,69.70
2022-12-17T14:57:54.600Z,71.20
2022-12-17T15:00:22.803Z,71.00
2022-12-17T15:02:54.622Z,73.00
2022-12-17T15:05:23.183Z,67.80
2022-12-17T15:07:52.188Z,68.80
2022-12-17T15:10:21.749Z,70.80
2022-12-17T15:12:51.683Z,72.40
2022-12-17T15:15:21.955Z,76.90
2022-12-17T15:17:50.124Z,76.00
2022-12-17T15:20:20.882Z,75.80
2022-12-17T15:22:49.012Z,74.60
2022-12-17T15:25:19.452Z,73.40
2022-12-17T15:27:47.704Z,70.30
2022-12-17T15:30:17.935Z,76.60
2022-12-17T15:32:46.469Z,72.80
2022-12-17T15:35:15.026Z,75.20
2022-12-17T15:37:43.149Z,75.70
2022-12-17T15:40:12.193Z,74.30
2022-12-17T15:43:04.425Z,73.50
2022-12-17T15:45:34.329Z,70.80
2022-12-17T15:48:02.566Z,68.50
2022-12-17T15:50:30.731Z,72.20
2022-12-17T15:52:58.996Z,72.90
2022-12-17T15:55:28.110Z,74.90
2022-12-17T15:57:56.628Z,73.40
2022-12-17T16:00:24.922Z,76.50
2022-12-17T16:02:53.460Z,82.40
2022-12-17T16:05:23.744Z,75.90
2022-12-17T16:07:53.240Z,74.20
2022-12-17T16:10:21.789Z,73.10
2022-12-17T16:12:50.157Z,74.40
2022-12-17T16:15:19.371Z,73.10
2022-12-17T16:17:47.535Z,73.50
2022-12-17T16:20:15.824Z,70.60
2022-12-17T16:22:44.757Z,73.30
2022-12-17T16:25:12.977Z,73.40
2022-12-17T16:27:41.870Z,80.40
2022-12-17T16:30:11.532Z,83.10
2022-12-17T16:32:39.987Z,85.10
2022-12-17T16:35:08.722Z,84.30
2022-12-17T16:37:36.988Z,80.90
2022-12-17T16:40:05.945Z,84.70
2022-12-17T16:42:34.039Z,81.40
2022-12-17T16:45:02.105Z,81.50
2022-12-17T16:47:30.357Z,79.70
2022-12-17T16:49:58.588Z,81.10
2022-12-17T16:52:26.738Z,83.30
2022-12-17T16:54:54.871Z,78.90
2022-12-17T16:57:22.943Z,78.60
2022-12-17T16:59:51.169Z,78.10
2022-12-17T17:02:19.883Z,80.00
2022-12-17T17:04:48.404Z,78.40
2022-12-17T17:07:16.597Z,86.80
2022-12-17T17:09:44.776Z,81.60
2022-12-17T17:12:13.782Z,79.90
2022-12-17T17:14:44.575Z,82.50
2022-12-17T17:17:12.626Z,80.50
2022-12-17T17:19:40.745Z,84.50
2022-12-17T17:22:09.008Z,79.70
2022-12-17T17:24:37.093Z,83.80
2022-12-17T17:27:05.108Z,83.90
2022-12-17T17:29:33.324Z,87.80
2022-12-17T17:32:16.835Z,78.00
2022-12-17T17:34:45.189Z,78.50
2022-12-17T17:37:13.900Z,83.60
2022-12-17T17:39:42.276Z,77.50
2022-12-17T17:42:10.580Z,80.00
2022-12-17T17:44:38.613Z,80.60
2022-12-17T17:47:06.831Z,77.00
2022-12-17T17:49:35.046Z,80.30
2022-12-17T17:52:11.442Z,78.80
2022-12-17T17:54:41.029Z,80.30
2022-12-17T17:57:10.418Z,79.90
2022-12-17T17:59:39.831Z,82.20
2022-12-17T18:02:11.044Z,79.50
2022-12-17T18:04:40.295Z,78.50
2022-12-17T18:07:26.610Z,78.40
2022-12-17T18:09:56.395Z,80.60
2022-12-17T18:12:43.461Z,72.70
2022-12-17T18:15:15.354Z,82.80
2022-12-17T18:17:49.296Z,82.20
2022-12-17T18:20:18.264Z,79.50
2022-12-17T18:22:47.090Z,80.30
2022-12-17T18:25:17.895Z,82.00
2022-12-17T18:27:47.357Z,81.10
2022-12-17T18:30:16.575Z,78.50
2022-12-17T18:32:45.771Z,80.40
2022-12-17T18:35:14.160Z,83.60
2022-12-17T18:37:42.592Z,77.80
2022-12-17T18:40:11.373Z,74.80
2022-12-17T18:42:58.379Z,84.50
2022-12-17T18:45:26.725Z,76.70
2022-12-17T18:47:54.980Z,78.90
2022-12-17T18:50:23.280Z,82.20
2022-12-17T18:52:51.744Z,84.90
2022-12-17T18:55:19.900Z,79.10
2022-12-17T18:57:51.205Z,73.40
2022-12-17T19:00:19.680Z,78.10
2022-12-17T19:02:47.996Z,81.30
2022-12-17T19:05:16.725Z,80.80
2022-12-17T19:07:44.983Z,79.10
2022-12-17T19:10:13.311Z,76.70
2022-12-17T19:12:41.587Z,83.80
2022-12-17T19:15:10.518Z,80.40
2022-12-17T19:17:38.777Z,82.00
2022-12-17T19:20:07.768Z,85.40
2022-12-17T19:22:37.609Z,78.00
2022-12-17T19:25:06.005Z,84.60
2022-12-17T19:27:34.282Z,62.70
2022-12-17T19:30:06.643Z,85.30
2022-12-17T19:32:35.876Z,80.90
2022-12-17T19:35:04.525Z,78.60
2022-12-17T19:37:32.669Z,79.00
2022-12-17T19:40:01.781Z,79.40
2022-12-17T19:42:36.742Z,79.00
2022-12-17T19:45:09.678Z,77.00
2022-12-17T19:47:39.451Z,74.40
2022-12-17T19:50:10.539Z,75.10
2022-12-17T19:52:38.962Z,77.40
2022-12-17T19:55:07.636Z,70.50
2022-12-17T19:57:36.920Z,68.50
2022-12-17T20:00:07.479Z,67.90
2022-12-17T20:02:44.623Z,68.20
2022-12-17T20:05:13.426Z,66.90
2022-12-17T20:07:42.578Z,68.30
2022-12-17T20:10:12.188Z,70.30
2022-12-17T20:12:41.460Z,67.70
2022-12-17T20:15:10.309Z,65.00
2022-12-17T20:17:39.273Z,68.90
2022-12-17T20:20:09.444Z,63.90
2022-12-17T20:22:37.879Z,64.50
2022-12-17T20:25:09.601Z,55.10
2022-12-17T20:27:39.508Z,61.60
2022-12-17T20:30:10.736Z,60.30
2022-12-17T20:32:39.913Z,62.00
2022-12-17T20:35:08.598Z,58.80
2022-12-17T20:37:36.821Z,59.20
2022-12-17T20:40:06.032Z,57.90
2022-12-17T20:42:37.142Z,54.30
2022-12-17T20:45:05.932Z,50.00
2022-12-17T20:47:34.102Z,57.20
2022-12-17T20:50:03.865Z,60.80
2022-12-17T20:52:32.135Z,56.40
2022-12-17T20:55:00.281Z,54.50
2022-12-17T20:57:28.769Z,54.30
2022-12-17T20:59:57.082Z,53.80
2022-12-17T21:02:29.421Z,50.60
2022-12-17T21:04:57.803Z,51.00
2022-12-17T21:07:25.936Z,51.20
2022-12-17T21:09:56.094Z,49.90
2022-12-17T21:12:45.204Z,49.60
2022-12-17T21:15:13.613Z,45.50
2022-12-17T21:17:42.357Z,49.00
2022-12-17T21:20:14.937Z,47.70
2022-12-17T21:22:43.926Z,47.60
2022-12-17T21:25:12.377Z,49.00
2022-12-17T21:27:41.147Z,50.10
2022-12-17T21:30:13.422Z,50.30
2022-12-17T21:32:42.217Z,48.80
2022-12-17T21:35:11.721Z,46.70
2022-12-17T21:37:40.259Z,48.10
2022-12-17T21:40:10.389Z,44.90
2022-12-17T21:42:58.479Z,48.60
2022-12-17T21:45:26.752Z,48.00
2022-12-17T21:47:55.252Z,45.90
2022-12-17T21:50:23.398Z,45.80
2022-12-17T21:52:51.705Z,45.80
2022-12-17T21:55:19.962Z,43.80
2022-12-17T21:57:48.493Z,43.70
2022-12-17T22:00:17.563Z,42.90
2022-12-17T22:02:45.852Z,42.20
2022-12-17T22:05:17.805Z,45.60
2022-12-17T22:08:06.600Z,40.40
2022-12-17T22:10:48.478Z,43.10
2022-12-17T22:13:37.246Z,42.70
2022-12-17T22:16:07.901Z,47.60
2022-12-17T22:18:36.502Z,45.30
2022-12-17T22:21:05.148Z,37.20
2022-12-17T22:23:33.317Z,42.80
2022-12-17T22:26:02.124Z,44.70
2022-12-17T22:28:30.353Z,49.10
2022-12-17T22:31:23.795Z,50.20
2022-12-17T22:34:28.910Z,48.30
2022-12-17T22:39:19.251Z,52.20
2022-12-17T22:44:31.511Z,44.40
2022-12-17T22:44:38.629Z,49.10
2022-12-17T22:45:25.977Z,50.80
2022-12-17T22:47:54.612Z,48.50
2022-12-17T22:50:28.664Z,48.40
2022-12-17T22:53:01.528Z,41.90
2022-12-17T22:55:30.637Z,36.40
2022-12-17T22:57:59.503Z,44.40
2022-12-17T23:00:32.294Z,43.60
2022-12-17T23:03:01.044Z,44.10
2022-12-17T23:05:30.304Z,46.70
2022-12-17T23:07:59.904Z,38.10
2022-12-17T23:10:28.977Z,40.20
2022-12-17T23:12:57.551Z,39.40
2022-12-17T23:15:30.414Z,40.30
2022-12-17T23:18:02.179Z,37.40
2022-12-17T23:20:32.579Z,37.00
2022-12-17T23:23:01.364Z,37.60
2022-12-17T23:25:31.468Z,40.10
2022-12-17T23:28:00.218Z,34.00
2022-12-17T23:30:32.185Z,32.60
2022-12-17T23:33:00.720Z,37.60
2022-12-17T23:35:29.825Z,41.30
2022-12-17T23:37:58.580Z,37.50
2022-12-17T23:40:27.088Z,39.80
2022-12-17T23:42:57.637Z,36.60
2022-12-17T23:45:26.035Z,36.60
2022-12-17T23:47:54.475Z,40.00
2022-12-17T23:50:23.117Z,39.50
2022-12-17T23:52:51.692Z,38.40
2022-12-17T23:55:20.507Z,36.90
2022-12-17T23:57:48.911Z,38.30
